Time;durP1;ratioP1;P1;durP2;ratioP2;P2;SDS_P1;SDS_P2;PMS_P1;PMS_P2;Temp;Humidity;BMP_temperature;BMP_pressure;BME280_temperature;BME280_humidity;BME280_pressure;Samples;Min_cycle;Max_cycle;Signal;HPM_P1;HPM_P2
2021/12/22 00:01:08;;;;;;;3.80;1.95;;;19.40;45.60;;;;;;5051953;28;20032;-82
2021/12/22 00:03:34;;;;;;;3.42;2.22;;;19.30;45.60;;;;;;5051909;28;20028;-84
2021/12/22 00:05:59;;;;;;;3.67;2.28;;;19.30;45.60;;;;;;5051769;28;20029;-84
2021/12/22 00:08:26;;;;;;;3.50;2.17;;;19.30;45.70;;;;;;5051811;28;20108;-84
2021/12/22 00:10:52;;;;;;;3.58;2.30;;;19.20;45.60;;;;;;5051624;28;20032;-85
2021/12/22 00:13:18;;;;;;;3.72;2.40;;;19.20;45.70;;;;;;5052064;28;20025;-84
2021/12/22 00:15:43;;;;;;;3.70;1.92;;;19.20;45.60;;;;;;5051754;28;20052;-84
2021/12/22 00:18:09;;;;;;;3.97;1.98;;;19.20;45.70;;;;;;5051675;28;20028;-84
2021/12/22 00:20:35;;;;;;;3.38;2.47;;;19.10;45.70;;;;;;5051799;28;20021;-84
2021/12/22 00:23:00;;;;;;;4.00;2.10;;;19.10;45.70;;;;;;5051439;28;20037;-84
2021/12/22 00:25:26;;;;;;;4.43;2.33;;;19.10;45.70;;;;;;5051768;28;20024;-84
2021/12/22 00:27:54;;;;;;;3.83;2.22;;;19.10;45.70;;;;;;5051741;28;20040;-84
2021/12/22 00:30:20;;;;;;;3.38;2.00;;;19.00;45.70;;;;;;5051535;28;20098;-84
2021/12/22 00:32:54;;;;;;;3.95;2.13;;;19.00;45.70;;;;;;5051562;28;20025;-84
2021/12/22 00:35:21;;;;;;;3.65;2.08;;;19.00;45.80;;;;;;5051618;28;20025;-84
2021/12/22 00:37:47;;;;;;;3.20;2.20;;;19.00;45.90;;;;;;5051742;28;20482;-84
2021/12/22 00:40:12;;;;;;;4.43;2.40;;;18.90;45.80;;;;;;5051385;28;20032;-84
2021/12/22 00:42:38;;;;;;;3.75;2.30;;;18.90;45.80;;;;;;5051651;28;20025;-84
2021/12/22 00:45:04;;;;;;;4.43;2.40;;;18.90;45.90;;;;;;5051348;28;20056;-84
2021/12/22 00:47:31;;;;;;;4.55;2.28;;;18.80;45.80;;;;;;5051288;28;20052;-85
2021/12/22 00:49:59;;;;;;;2.90;1.90;;;18.80;45.90;;;;;;5051483;28;20432;-85
2021/12/22 00:52:25;;;;;;;3.05;2.10;;;18.80;47.00;;;;;;5050199;28;20021;-85
2021/12/22 00:54:52;;;;;;;4.82;2.35;;;18.70;45.90;;;;;;5051555;28;20470;-84
2021/12/22 00:57:17;;;;;;;2.92;1.80;;;18.70;45.90;;;;;;5051158;28;20036;-84
2021/12/22 00:59:45;;;;;;;3.08;2.00;;;18.70;46.00;;;;;;5050131;28;20025;-84
2021/12/22 01:02:12;;;;;;;3.72;2.30;;;18.70;46.00;;;;;;5053948;28;20029;-84
2021/12/22 01:04:39;;;;;;;3.15;1.88;;;18.70;46.00;;;;;;5055146;28;20045;-85
2021/12/22 01:07:06;;;;;;;4.00;2.28;;;18.60;46.00;;;;;;5054808;28;20028;-84
2021/12/22 01:09:32;;;;;;;2.80;1.98;;;18.60;46.00;;;;;;5055002;28;20036;-84
2021/12/22 01:11:58;;;;;;;4.00;2.40;;;18.60;46.00;;;;;;5054901;28;20021;-84
2021/12/22 01:14:24;;;;;;;4.93;2.10;;;18.60;46.00;;;;;;5054580;28;20074;-84
2021/12/22 01:16:53;;;;;;;3.10;2.00;;;18.50;46.00;;;;;;5054619;28;20028;-84
2021/12/22 01:19:27;;;;;;;2.67;2.00;;;18.50;46.00;;;;;;5054578;28;20074;-84
2021/12/22 01:22:02;;;;;;;4.65;2.15;;;18.50;46.10;;;;;;5054827;28;20082;-84
2021/12/22 01:24:34;;;;;;;3.60;2.13;;;18.50;46.10;;;;;;5054556;28;20043;-84
2021/12/22 01:27:08;;;;;;;4.70;2.60;;;18.40;46.10;;;;;;5054618;28;20036;-84
2021/12/22 01:29:36;;;;;;;3.70;2.10;;;18.40;46.20;;;;;;5054706;28;20029;-84
2021/12/22 01:32:02;;;;;;;3.40;2.20;;;18.40;46.20;;;;;;5054263;28;20493;-84
2021/12/22 01:34:28;;;;;;;3.40;2.00;;;18.30;46.20;;;;;;5054447;28;20025;-84
2021/12/22 01:36:54;;;;;;;5.28;2.33;;;18.30;46.20;;;;;;5054194;28;20074;-84
2021/12/22 01:39:20;;;;;;;3.25;2.30;;;18.30;46.30;;;;;;5054202;28;20022;-84
2021/12/22 01:41:46;;;;;;;3.55;2.10;;;18.30;46.30;;;;;;5054288;28;20060;-84
2021/12/22 01:44:34;;;;;;;4.15;2.13;;;18.20;46.30;;;;;;5054155;28;20053;-83
2021/12/22 01:49:50;;;;;;;3.42;1.95;;;18.20;46.40;;;;;;5054442;28;20059;-84
2021/12/22 01:52:18;;;;;;;2.90;2.10;;;18.20;46.40;;;;;;5053845;28;20100;-84
2021/12/22 01:54:49;;;;;;;2.90;1.90;;;18.10;46.50;;;;;;5054045;28;20021;-84
2021/12/22 01:57:16;;;;;;;3.72;1.90;;;18.10;46.50;;;;;;5053800;28;20147;-84
2021/12/22 01:59:44;;;;;;;3.75;1.90;;;18.10;46.50;;;;;;5054042;28;20079;-84
2021/12/22 02:02:12;;;;;;;3.72;2.00;;;18.00;46.50;;;;;;5053825;28;20017;-84
2021/12/22 02:04:38;;;;;;;3.33;2.10;;;18.00;46.60;;;;;;5053774;28;20036;-84
2021/12/22 02:07:05;;;;;;;2.20;1.80;;;18.00;46.60;;;;;;5053874;28;20032;-84
2021/12/22 02:12:13;;;;;;;2.63;1.70;;;18.00;46.60;;;;;;5053357;28;20382;-84
2021/12/22 02:14:43;;;;;;;3.33;1.90;;;17.90;46.60;;;;;;5053551;28;20478;-84
2021/12/22 02:17:11;;;;;;;2.95;2.03;;;17.90;46.70;;;;;;5053483;28;20025;-84
2021/12/22 02:19:43;;;;;;;3.33;2.00;;;17.90;46.70;;;;;;5053555;28;20562;-84
2021/12/22 02:22:12;;;;;;;3.20;1.80;;;17.90;46.70;;;;;;5053484;28;20036;-84
2021/12/22 02:24:39;;;;;;;3.40;1.90;;;17.80;46.70;;;;;;5053398;28;20116;-84
2021/12/22 02:27:12;;;;;;;4.45;2.10;;;17.80;46.70;;;;;;5053058;28;20525;-84
2021/12/22 02:29:39;;;;;;;3.13;1.70;;;17.80;46.80;;;;;;5053419;28;20029;-84
2021/12/22 02:32:14;;;;;;;2.80;2.03;;;17.70;46.90;;;;;;5053218;28;20297;-84
2021/12/22 02:34:43;;;;;;;2.88;1.90;;;17.80;46.90;;;;;;5053357;28;20104;-84
2021/12/22 02:37:14;;;;;;;3.05;1.98;;;17.70;46.80;;;;;;5053124;28;20025;-84
2021/12/22 02:39:48;;;;;;;2.03;1.70;;;17.70;46.80;;;;;;5053138;28;20053;-84
2021/12/22 02:42:14;;;;;;;2.55;1.90;;;17.70;46.80;;;;;;5053206;28;20183;-84
2021/12/22 02:44:40;;;;;;;2.83;2.00;;;17.60;46.90;;;;;;5052902;28;20021;-84
2021/12/22 02:47:25;;;;;;;2.80;1.98;;;17.60;46.90;;;;;;5052804;28;20033;-84
2021/12/22 02:49:50;;;;;;;3.42;2.13;;;17.60;46.90;;;;;;5052841;28;20045;-84
2021/12/22 02:52:17;;;;;;;3.60;2.10;;;17.60;46.90;;;;;;5052662;28;20032;-84
2021/12/22 02:54:50;;;;;;;3.30;1.98;;;17.50;47.00;;;;;;5052763;28;20382;-84
2021/12/22 02:57:29;;;;;;;2.45;1.90;;;17.50;47.00;;;;;;5052787;28;20029;-84
2021/12/22 03:02:56;;;;;;;3.47;1.85;;;17.50;47.10;;;;;;5052972;28;20032;-84
2021/12/22 03:05:22;;;;;;;2.65;2.13;;;17.40;47.00;;;;;;5052699;28;20544;-84
2021/12/22 03:07:48;;;;;;;2.10;1.90;;;17.40;47.10;;;;;;5052496;28;20032;-84
2021/12/22 03:10:17;;;;;;;3.85;2.05;;;17.40;47.10;;;;;;5052603;28;20036;-84
2021/12/22 03:12:46;;;;;;;3.03;1.92;;;17.40;47.20;;;;;;5052372;28;20028;-84
2021/12/22 03:15:12;;;;;;;2.45;1.95;;;17.30;47.10;;;;;;5052599;28;20024;-84
2021/12/22 03:17:39;;;;;;;2.90;1.80;;;17.40;47.20;;;;;;5052477;28;20378;-84
2021/12/22 03:20:07;;;;;;;3.70;2.15;;;17.30;47.20;;;;;;5052402;28;20024;-84
2021/12/22 03:22:32;;;;;;;2.60;1.63;;;17.30;47.20;;;;;;5052407;28;20576;-84
2021/12/22 03:24:58;;;;;;;2.80;1.92;;;17.30;47.20;;;;;;5051682;28;20033;-84
2021/12/22 03:27:24;;;;;;;2.38;1.77;;;17.20;47.20;;;;;;5052209;28;20041;-84
2021/12/22 03:29:55;;;;;;;2.67;1.88;;;17.20;47.20;;;;;;5051838;28;20033;-84
2021/12/22 03:32:21;;;;;;;3.13;2.08;;;17.20;47.30;;;;;;5052213;28;20124;-84
2021/12/22 03:34:46;;;;;;;3.33;2.42;;;17.20;47.30;;;;;;5052124;28;20105;-84
2021/12/22 03:37:13;;;;;;;3.03;1.90;;;17.20;47.40;;;;;;5052088;28;20025;-84
2021/12/22 03:39:39;;;;;;;3.53;1.80;;;17.10;47.30;;;;;;5052226;28;20021;-84
2021/12/22 03:42:09;;;;;;;3.47;2.00;;;17.20;47.40;;;;;;5051798;28;20025;-84
2021/12/22 03:44:35;;;;;;;2.22;1.75;;;17.10;47.40;;;;;;5052101;28;20437;-84
2021/12/22 03:47:00;;;;;;;2.78;1.85;;;17.10;47.40;;;;;;5051926;28;20029;-84
2021/12/22 03:49:28;;;;;;;2.42;2.17;;;17.10;47.50;;;;;;5051956;28;20076;-84
2021/12/22 03:51:54;;;;;;;2.78;1.70;;;17.00;47.40;;;;;;5052000;28;20029;-84
2021/12/22 03:54:20;;;;;;;2.35;1.80;;;17.00;47.40;;;;;;5051873;28;20029;-84
2021/12/22 03:56:45;;;;;;;2.75;2.10;;;17.00;47.40;;;;;;5051827;28;20382;-84
2021/12/22 03:59:11;;;;;;;2.33;1.92;;;16.90;47.50;;;;;;5051845;28;20087;-84
2021/12/22 04:01:37;;;;;;;2.90;2.20;;;16.90;47.30;;;;;;5051915;28;20549;-84
2021/12/22 04:04:10;;;;;;;2.90;1.77;;;16.90;47.30;;;;;;5051890;28;20039;-84
2021/12/22 04:06:38;;;;;;;3.45;2.10;;;16.90;47.30;;;;;;5051818;28;20029;-84
2021/12/22 04:09:03;;;;;;;2.55;1.90;;;16.90;47.30;;;;;;5051717;28;20085;-83
2021/12/22 04:11:29;;;;;;;2.67;1.80;;;16.90;48.40;;;;;;5051998;28;20057;-83
2021/12/22 04:13:55;;;;;;;2.70;1.85;;;16.90;47.40;;;;;;5051857;28;20056;-84
2021/12/22 04:16:20;;;;;;;2.92;2.00;;;16.80;47.40;;;;;;5051551;28;20032;-84
2021/12/22 04:18:46;;;;;;;2.22;1.73;;;16.80;47.40;;;;;;5051737;28;20021;-84
2021/12/22 04:21:11;;;;;;;2.63;1.90;;;16.80;47.50;;;;;;5051635;28;20025;-83
2021/12/22 04:23:37;;;;;;;4.20;1.80;;;16.80;47.50;;;;;;5051266;28;20390;-83
2021/12/22 04:26:03;;;;;;;3.03;1.92;;;16.70;47.50;;;;;;5051721;28;20036;-84
2021/12/22 04:28:28;;;;;;;2.45;1.83;;;16.70;47.50;;;;;;5051622;28;20028;-84
2021/12/22 04:30:54;;;;;;;3.72;1.70;;;16.70;47.50;;;;;;5051671;28;20048;-84
2021/12/22 04:33:20;;;;;;;2.28;2.08;;;16.70;47.60;;;;;;5051595;28;20028;-83
2021/12/22 04:35:50;;;;;;;3.05;1.90;;;16.70;47.60;;;;;;5052304;28;20024;-84
2021/12/22 04:38:17;;;;;;;2.38;1.80;;;16.60;47.50;;;;;;5055322;28;20115;-83
2021/12/22 04:40:43;;;;;;;2.58;1.80;;;16.60;47.60;;;;;;5055423;28;20031;-83
2021/12/22 04:43:09;;;;;;;2.70;1.80;;;16.60;47.60;;;;;;5055462;28;20032;-84
2021/12/22 04:45:35;;;;;;;2.70;1.90;;;16.60;47.60;;;;;;5055182;28;20037;-84
2021/12/22 04:48:00;;;;;;;2.35;2.03;;;16.60;47.70;;;;;;5055237;28;20572;-83
2021/12/22 04:50:27;;;;;;;2.50;2.10;;;16.60;47.80;;;;;;5055083;28;20021;-84
2021/12/22 04:53:19;;;;;;;2.95;1.77;;;16.60;47.80;;;;;;5055104;28;20033;-83
2021/12/22 04:55:43;;;;;;;2.38;1.70;;;16.50;47.80;;;;;;5055018;28;20070;-83
2021/12/22 04:58:09;;;;;;;2.10;1.75;;;16.50;47.80;;;;;;5054876;28;20026;-83
2021/12/22 05:00:37;;;;;;;2.50;1.80;;;16.50;47.90;;;;;;5054937;28;20021;-83
2021/12/22 05:03:03;;;;;;;2.40;1.95;;;16.50;47.90;;;;;;5054929;28;20033;-83
2021/12/22 05:05:29;;;;;;;3.17;1.95;;;16.40;47.90;;;;;;5055006;28;20024;-84
2021/12/22 05:07:55;;;;;;;2.13;1.70;;;16.40;47.90;;;;;;5054971;28;20039;-83
2021/12/22 05:10:22;;;;;;;2.20;1.80;;;16.40;48.00;;;;;;5054845;28;20104;-84
2021/12/22 05:12:48;;;;;;;2.50;1.80;;;16.40;47.90;;;;;;5054760;28;20478;-83
2021/12/22 05:15:19;;;;;;;3.05;1.83;;;16.30;47.90;;;;;;5054772;28;20025;-83
2021/12/22 05:20:14;;;;;;;2.10;1.85;;;16.40;48.00;;;;;;5054526;28;20467;-83
2021/12/22 05:22:40;;;;;;;2.65;2.03;;;16.30;48.00;;;;;;5054621;28;20036;-83
2021/12/22 05:25:09;;;;;;;2.83;1.50;;;16.30;48.00;;;;;;5054520;28;20097;-84
2021/12/22 05:27:36;;;;;;;2.85;2.10;;;16.30;48.00;;;;;;5054549;28;20029;-84
2021/12/22 05:30:03;;;;;;;2.70;1.92;;;16.30;48.10;;;;;;5054535;28;20108;-83
2021/12/22 05:32:32;;;;;;;2.75;2.10;;;16.20;48.00;;;;;;5054305;28;20100;-84
2021/12/22 05:35:03;;;;;;;2.17;1.70;;;16.20;48.00;;;;;;5054466;28;20063;-84
2021/12/22 05:37:28;;;;;;;2.97;1.90;;;16.20;48.10;;;;;;5054307;28;20021;-84
2021/12/22 05:39:57;;;;;;;2.75;1.80;;;16.20;48.10;;;;;;5054421;28;20029;-83
2021/12/22 05:42:27;;;;;;;2.20;1.92;;;16.20;48.10;;;;;;5054167;28;20112;-83
2021/12/22 05:44:53;;;;;;;2.90;1.95;;;16.10;48.10;;;;;;5054268;28;20032;-83
2021/12/22 05:47:18;;;;;;;3.05;1.98;;;16.20;48.20;;;;;;5053193;28;20029;-83
2021/12/22 05:49:44;;;;;;;2.35;1.60;;;16.10;48.10;;;;;;5054243;28;20448;-84
2021/12/22 05:52:11;;;;;;;2.97;2.08;;;16.10;48.20;;;;;;5053812;28;20086;-83
2021/12/22 05:54:37;;;;;;;2.10;1.70;;;16.10;48.10;;;;;;5054016;28;20381;-84
2021/12/22 05:57:03;;;;;;;1.88;1.67;;;16.10;48.20;;;;;;5053926;28;20104;-83
2021/12/22 05:59:28;;;;;;;2.03;1.67;;;16.10;48.30;;;;;;5053912;28;20021;-83
2021/12/22 06:01:54;;;;;;;2.08;1.88;;;16.00;48.20;;;;;;5054012;28;20028;-83
2021/12/22 06:04:19;;;;;;;2.40;1.98;;;16.00;48.20;;;;;;5053768;28;20029;-83
2021/12/22 06:06:45;;;;;;;2.55;1.98;;;16.00;48.20;;;;;;5053824;28;20036;-83
2021/12/22 06:09:11;;;;;;;2.25;2.00;;;16.00;48.30;;;;;;5053740;28;20497;-83
2021/12/22 06:11:36;;;;;;;3.65;1.80;;;16.00;48.20;;;;;;5053622;28;20066;-83
2021/12/22 06:14:02;;;;;;;2.97;1.83;;;16.00;48.30;;;;;;5053546;28;20509;-84
2021/12/22 06:16:30;;;;;;;2.30;1.90;;;16.00;48.40;;;;;;5053474;28;20493;-84
2021/12/22 06:19:02;;;;;;;3.08;2.00;;;16.00;48.40;;;;;;5053651;28;20074;-83
2021/12/22 06:21:29;;;;;;;2.67;2.45;;;16.00;48.40;;;;;;5053632;28;20031;-83
2021/12/22 06:23:55;;;;;;;2.75;2.30;;;15.90;48.30;;;;;;5053613;28;20029;-83
2021/12/22 06:26:20;;;;;;;2.30;2.00;;;16.00;48.40;;;;;;5053272;28;20040;-83
2021/12/22 06:28:46;;;;;;;2.85;1.80;;;16.00;48.40;;;;;;5053385;28;20032;-83
2021/12/22 06:31:12;;;;;;;4.43;2.28;;;16.00;48.50;;;;;;5053201;28;20356;-83
2021/12/22 06:33:37;;;;;;;2.28;1.90;;;16.10;48.50;;;;;;5053083;28;20032;-83
2021/12/22 06:36:03;;;;;;;2.45;1.90;;;16.10;48.40;;;;;;5053200;28;20031;-83
2021/12/22 06:38:29;;;;;;;3.08;2.08;;;16.20;48.30;;;;;;5053179;28;20100;-84
2021/12/22 06:40:54;;;;;;;1.85;1.65;;;16.30;48.20;;;;;;5053335;28;20514;-83
2021/12/22 06:43:20;;;;;;;2.17;1.88;;;16.40;48.10;;;;;;5053088;28;20029;-83
2021/12/22 06:45:45;;;;;;;2.50;1.92;;;16.60;48.00;;;;;;5052998;28;20068;-83
2021/12/22 06:48:11;;;;;;;1.88;1.70;;;16.70;47.80;;;;;;5052796;28;20045;-84
2021/12/22 06:50:37;;;;;;;2.42;1.88;;;16.90;47.70;;;;;;5052921;28;20427;-84
2021/12/22 06:53:02;;;;;;;2.85;1.83;;;17.10;47.40;;;;;;5052852;28;20043;-84
2021/12/22 06:55:28;;;;;;;2.63;1.80;;;17.20;47.10;;;;;;5053170;28;20041;-84
2021/12/22 06:57:55;;;;;;;2.25;1.90;;;17.40;46.90;;;;;;5052211;28;20546;-83
2021/12/22 07:00:22;;;;;;;2.45;1.80;;;17.60;46.60;;;;;;5051064;28;20532;-83
2021/12/22 07:02:47;;;;;;;2.88;1.90;;;17.80;46.30;;;;;;5052665;28;20033;-83
2021/12/22 07:05:13;;;;;;;2.65;2.00;;;18.00;46.00;;;;;;5052678;28;20025;-84
2021/12/22 07:07:40;;;;;;;2.47;1.95;;;18.20;45.70;;;;;;5052705;28;20558;-84
2021/12/22 07:10:08;;;;;;;2.58;1.90;;;18.40;45.40;;;;;;5052441;28;20096;-83
2021/12/22 07:12:34;;;;;;;2.72;1.77;;;18.60;45.10;;;;;;5052540;28;20467;-83
2021/12/22 07:15:02;;;;;;;2.15;1.90;;;18.80;44.80;;;;;;5052403;28;20032;-84
2021/12/22 07:17:28;;;;;;;2.15;1.95;;;19.00;44.50;;;;;;5052669;28;20485;-84
2021/12/22 07:19:53;;;;;;;2.10;1.88;;;19.20;44.30;;;;;;5052328;28;20103;-84
2021/12/22 07:22:19;;;;;;;2.70;2.10;;;19.40;44.10;;;;;;5052468;28;20098;-84
2021/12/22 07:24:45;;;;;;;2.10;1.73;;;19.50;43.90;;;;;;5052222;28;20024;-84
2021/12/22 07:27:10;;;;;;;2.75;1.90;;;19.70;43.60;;;;;;5052223;28;20028;-84
2021/12/22 07:29:37;;;;;;;2.83;2.00;;;19.80;43.30;;;;;;5052132;28;20060;-84
2021/12/22 07:32:04;;;;;;;2.70;2.15;;;19.90;43.10;;;;;;5050096;28;20538;-84
2021/12/22 07:34:47;;;;;;;2.53;2.20;;;20.00;42.90;;;;;;5052349;28;20047;-83
2021/12/22 07:37:26;;;;;;;3.17;2.08;;;20.10;42.80;;;;;;5052221;28;20027;-84
2021/12/22 07:39:52;;;;;;;2.70;2.20;;;20.20;42.60;;;;;;5052228;28;20108;-85
2021/12/22 07:42:17;;;;;;;3.85;2.13;;;20.30;42.60;;;;;;5052201;28;20500;-85
2021/12/22 07:44:43;;;;;;;2.25;2.00;;;20.30;42.50;;;;;;5052024;28;20553;-85
2021/12/22 07:47:08;;;;;;;2.90;2.05;;;20.40;42.50;;;;;;5052054;28;20070;-85
2021/12/22 07:49:34;;;;;;;2.10;1.90;;;20.50;42.50;;;;;;5051572;28;20071;-85
2021/12/22 07:52:00;;;;;;;3.70;2.30;;;20.50;42.40;;;;;;5051534;28;20040;-84
2021/12/22 07:54:25;;;;;;;3.83;2.22;;;20.60;42.40;;;;;;5051921;28;20021;-84
2021/12/22 07:56:51;;;;;;;7.05;2.53;;;20.60;42.40;;;;;;5051838;28;20029;-84
2021/12/22 07:59:16;;;;;;;4.05;2.20;;;20.60;42.30;;;;;;5051946;28;20028;-84
2021/12/22 08:01:42;;;;;;;5.05;2.50;;;20.60;42.50;;;;;;5051494;28;20025;-85
2021/12/22 08:04:07;;;;;;;3.60;2.15;;;20.60;42.30;;;;;;5051739;28;20123;-85
2021/12/22 08:06:33;;;;;;;3.75;2.45;;;20.70;42.30;;;;;;5051876;28;20408;-84
2021/12/22 08:08:59;;;;;;;4.18;2.25;;;20.70;42.30;;;;;;5051809;28;20505;-84
2021/12/22 08:11:25;;;;;;;4.13;2.30;;;20.70;42.30;;;;;;5055181;28;20039;-85
2021/12/22 08:13:50;;;;;;;3.90;2.50;;;20.70;42.40;;;;;;5055890;28;20488;-85
2021/12/22 08:16:16;;;;;;;4.38;2.50;;;20.70;42.30;;;;;;5055758;28;20078;-84
2021/12/22 08:18:41;;;;;;;5.20;2.58;;;20.70;42.30;;;;;;5055938;28;20343;-85
2021/12/22 08:21:07;;;;;;;4.03;2.70;;;20.70;42.30;;;;;;5055672;28;20025;-85
2021/12/22 08:23:33;;;;;;;6.22;2.45;;;20.70;42.40;;;;;;5055785;28;20056;-85
2021/12/22 08:25:58;;;;;;;3.25;2.38;;;20.70;42.40;;;;;;5055758;28;20031;-84
2021/12/22 08:28:24;;;;;;;5.05;2.67;;;20.70;42.40;;;;;;5055508;28;20677;-84
2021/12/22 08:30:50;;;;;;;5.20;2.45;;;20.70;42.40;;;;;;5055694;28;20025;-85
2021/12/22 08:33:24;;;;;;;6.22;2.70;;;20.60;42.40;;;;;;5055434;28;20029;-84
2021/12/22 08:38:52;;;;;;;5.60;2.70;;;20.60;42.40;;;;;;5044268;28;20382;-85
2021/12/22 08:41:18;;;;;;;5.20;2.63;;;20.60;42.50;;;;;;5055510;28;20071;-84
2021/12/22 08:43:44;;;;;;;6.30;2.83;;;20.60;42.60;;;;;;5054114;28;20029;-84
2021/12/22 08:46:09;;;;;;;3.35;2.45;;;20.60;42.50;;;;;;5055242;28;20033;-84
2021/12/22 08:48:35;;;;;;;5.07;2.55;;;20.60;42.60;;;;;;5054961;28;20102;-84
2021/12/22 08:51:01;;;;;;;3.22;2.40;;;20.60;42.60;;;;;;5055226;28;20024;-85
2021/12/22 08:53:26;;;;;;;6.50;3.00;;;20.60;42.70;;;;;;5055316;28;20068;-84
2021/12/22 08:55:52;;;;;;;5.80;2.60;;;20.60;42.70;;;;;;5054968;28;20103;-85
2021/12/22 08:58:18;;;;;;;5.65;2.83;;;20.60;42.90;;;;;;5055210;28;20532;-86
2021/12/22 09:00:43;;;;;;;6.88;2.90;;;20.50;42.90;;;;;;5054908;28;20021;-85
2021/12/22 09:03:09;;;;;;;5.43;2.90;;;20.50;42.90;;;;;;5054944;28;20025;-85
2021/12/22 09:05:34;;;;;;;5.70;2.80;;;20.50;42.90;;;;;;5055031;28;20033;-85
2021/12/22 09:08:00;;;;;;;3.75;2.75;;;20.50;43.00;;;;;;5054855;28;20049;-85
2021/12/22 09:10:25;;;;;;;6.85;2.90;;;20.50;44.00;;;;;;5054937;28;20505;-85
2021/12/22 09:12:51;;;;;;;8.38;3.08;;;20.50;42.90;;;;;;5054463;28;20036;-85
2021/12/22 09:15:17;;;;;;;6.78;3.00;;;20.50;42.90;;;;;;5053401;28;20029;-86
2021/12/22 09:17:44;;;;;;;6.47;3.15;;;20.50;43.00;;;;;;5054163;28;20044;-85
2021/12/22 09:20:10;;;;;;;11.45;3.00;;;20.50;42.90;;;;;;5053860;28;20052;-85
2021/12/22 09:22:35;;;;;;;6.10;2.97;;;20.40;42.90;;;;;;5053165;28;20051;-85
2021/12/22 09:25:02;;;;;;;4.43;2.97;;;20.40;42.90;;;;;;5053829;28;20025;-86
2021/12/22 09:27:27;;;;;;;6.30;3.08;;;20.40;42.90;;;;;;5054607;28;20025;-85
2021/12/22 09:29:53;;;;;;;5.28;3.30;;;20.40;43.00;;;;;;5054618;28;20083;-85
2021/12/22 09:32:21;;;;;;;6.45;2.90;;;20.40;42.90;;;;;;5053079;28;20064;-85
2021/12/22 09:34:49;;;;;;;5.65;3.00;;;20.40;43.00;;;;;;5054455;28;20036;-85
2021/12/22 09:37:16;;;;;;;4.40;2.97;;;20.40;43.00;;;;;;5054372;28;20025;-85
2021/12/22 09:39:41;;;;;;;4.43;3.13;;;20.40;43.00;;;;;;5054342;28;20027;-85
2021/12/22 09:42:09;;;;;;;9.32;3.65;;;20.30;42.90;;;;;;5047818;28;20033;-89
2021/12/22 09:44:43;;;;;;;4.93;3.70;;;20.40;43.00;;;;;;5066780;28;20080;-87
2021/12/22 09:47:09;;;;;;;7.13;3.90;;;20.40;42.70;;;;;;5065827;28;20029;-92
2021/12/22 09:52:21;;;;;;;12.30;5.07;;;20.40;42.10;;;;;;5034162;28;20025;-92
2021/12/22 09:54:52;;;;;;;7.03;4.40;;;20.30;41.80;;;;;;5067014;28;20028;-89
2021/12/22 09:57:19;;;;;;;7.78;3.85;;;20.30;41.80;;;;;;5034729;28;20030;-88
2021/12/22 09:59:48;;;;;;;9.60;4.30;;;20.30;41.70;;;;;;5034704;28;20030;-86
2021/12/22 10:02:15;;;;;;;9.13;4.15;;;20.30;41.50;;;;;;5034684;28;20022;-89
2021/12/22 10:04:41;;;;;;;9.88;4.85;;;20.30;41.40;;;;;;5033499;28;20479;-90
2021/12/22 10:07:08;;;;;;;7.22;4.13;;;20.30;41.40;;;;;;5049845;28;20033;-90
2021/12/22 10:09:43;;;;;;;6.70;4.40;;;20.30;41.30;;;;;;5046612;28;20025;-91
2021/12/22 10:12:17;;;;;;;8.85;4.15;;;20.30;41.20;;;;;;5054300;28;20032;-90
2021/12/22 10:15:10;;;;;;;6.95;4.38;;;20.30;41.10;;;;;;5054406;28;20024;-90
2021/12/22 10:17:44;;;;;;;9.55;4.47;;;20.30;41.00;;;;;;5054132;28;20486;-91
2021/12/22 10:20:20;;;;;;;8.38;4.18;;;20.30;41.10;;;;;;5053056;28;20032;-90
2021/12/22 10:22:47;;;;;;;7.35;3.85;;;20.20;41.00;;;;;;5053175;28;20037;-91
2021/12/22 10:25:20;;;;;;;8.80;4.35;;;20.30;41.10;;;;;;5054096;28;20029;-93
2021/12/22 10:27:55;;;;;;;;;;;20.30;40.90;;;;;;5053184;28;20545;-91
2021/12/22 10:30:21;;;;;;;7.15;3.97;;;20.20;41.00;;;;;;5052494;28;19908;-85
2021/12/22 10:32:47;;;;;;;7.55;3.83;;;20.20;42.20;;;;;;5053067;28;20031;-85
2021/12/22 10:35:12;;;;;;;8.82;4.10;;;20.20;41.10;;;;;;5053159;28;20082;-86
2021/12/22 10:37:40;;;;;;;8.05;3.90;;;20.20;41.00;;;;;;5053316;28;20025;-85
2021/12/22 10:40:22;;;;;;;7.72;3.85;;;20.20;41.10;;;;;;5053110;28;20043;-85
2021/12/22 10:42:48;;;;;;;7.25;3.70;;;20.20;41.10;;;;;;5052998;28;20086;-84
2021/12/22 10:45:15;;;;;;;9.60;4.30;;;20.20;41.20;;;;;;5053119;28;20436;-85
2021/12/22 10:50:34;;;;;;;8.90;3.78;;;20.30;41.40;;;;;;5052852;28;20028;-85
2021/12/22 10:53:00;;;;;;;7.97;4.05;;;20.30;41.50;;;;;;5052933;28;20032;-85
2021/12/22 10:55:39;;;;;;;10.43;4.00;;;20.30;41.60;;;;;;5052980;28;20079;-85
2021/12/22 10:58:25;;;;;;;11.15;4.15;;;20.30;41.60;;;;;;5052853;28;20025;-85
2021/12/22 11:01:16;;;;;;;7.30;3.80;;;20.30;41.60;;;;;;5052739;28;20020;-85
2021/12/22 11:03:51;;;;;;;9.68;3.97;;;20.30;41.80;;;;;;5052906;28;20017;-85
2021/12/22 11:06:28;;;;;;;10.15;4.20;;;20.30;41.80;;;;;;5052593;28;20028;-85
2021/12/22 11:09:13;;;;;;;9.52;3.78;;;20.30;41.80;;;;;;5052841;28;20051;-85
2021/12/22 11:11:42;;;;;;;7.53;3.50;;;20.30;41.90;;;;;;5052467;28;20466;-86
2021/12/22 11:14:22;;;;;;;7.75;3.90;;;20.30;42.00;;;;;;5052480;28;20104;-85
2021/12/22 11:16:55;;;;;;;7.57;3.50;;;20.30;42.00;;;;;;5052569;28;20025;-85
2021/12/22 11:19:21;;;;;;;;;;;20.30;42.10;;;;;;5052678;28;20494;-85
2021/12/22 11:21:53;;;;;;;8.95;3.42;;;20.20;42.10;;;;;;5052345;28;19944;-85
2021/12/22 11:24:19;;;;;;;12.05;3.90;;;20.20;42.20;;;;;;5052298;28;20025;-85
2021/12/22 11:26:45;;;;;;;8.55;3.88;;;20.20;42.10;;;;;;5052362;28;20029;-85
2021/12/22 11:29:11;;;;;;;9.60;3.72;;;20.30;42.20;;;;;;5052173;28;20013;-85
2021/12/22 11:31:37;;;;;;;10.95;3.50;;;20.20;42.10;;;;;;5052242;28;20462;-86
2021/12/22 11:34:03;;;;;;;11.38;3.83;;;20.30;42.20;;;;;;5051979;28;20100;-86
2021/12/22 11:36:28;;;;;;;12.77;3.63;;;20.30;42.20;;;;;;5052101;28;20425;-86
2021/12/22 11:38:56;;;;;;;10.18;4.00;;;20.30;42.30;;;;;;5052018;28;20057;-86
2021/12/22 11:41:21;;;;;;;9.75;4.20;;;20.30;42.30;;;;;;5051810;28;20382;-85
2021/12/22 11:43:48;;;;;;;8.50;3.35;;;20.20;42.30;;;;;;5052099;28;20033;-85
2021/12/22 11:46:15;;;;;;;8.70;3.58;;;20.30;42.40;;;;;;5051694;28;20493;-85
2021/12/22 11:48:42;;;;;;;11.95;3.40;;;20.20;42.30;;;;;;5052108;28;20067;-85
2021/12/22 11:51:32;;;;;;;8.70;3.67;;;20.30;42.40;;;;;;5051815;28;20029;-85
2021/12/22 11:54:07;;;;;;;11.35;4.10;;;20.30;42.30;;;;;;5051688;28;20037;-86
2021/12/22 11:56:50;;;;;;;9.40;4.00;;;20.30;42.30;;;;;;5052185;28;20009;-86
2021/12/22 11:59:38;;;;;;;13.70;4.57;;;20.30;42.20;;;;;;5052001;28;20017;-88
2021/12/22 12:02:20;;;;;;;11.70;4.30;;;20.30;42.00;;;;;;5050627;28;20021;-87
2021/12/22 12:04:52;;;;;;;16.10;4.95;;;20.30;41.80;;;;;;5050868;28;20021;-88
2021/12/22 12:07:45;;;;;;;13.90;4.63;;;20.20;41.80;;;;;;5050618;28;20182;-88
2021/12/22 12:10:48;;;;;;;9.88;4.50;;;20.20;41.50;;;;;;5051930;28;20017;-88
2021/12/22 12:22:21;;;;;;;11.93;4.20;;;20.10;41.60;;;;;;5051669;28;20047;-88
2021/12/22 12:25:06;;;;;;;13.27;4.57;;;20.20;41.60;;;;;;5051425;28;20013;-88
2021/12/22 12:27:44;;;;;;;16.13;4.57;;;20.10;41.60;;;;;;5050476;28;20025;-87
2021/12/22 12:30:18;;;;;;;12.23;4.82;;;20.10;41.50;;;;;;5050534;28;20075;-88
2021/12/22 12:32:48;;;;;;;11.23;4.25;;;20.10;42.60;;;;;;5051712;28;20532;-88
2021/12/22 12:35:28;;;;;;;12.38;4.47;;;20.10;41.50;;;;;;5050387;28;20416;-87
2021/12/22 12:38:08;;;;;;;10.77;3.92;;;20.10;42.10;;;;;;5050388;28;20032;-87
2021/12/22 12:40:55;;;;;;;10.77;3.95;;;20.10;41.50;;;;;;5051802;28;20024;-88
2021/12/22 12:43:40;;;;;;;13.25;4.97;;;20.10;41.50;;;;;;5050371;28;20036;-87
2021/12/22 12:46:35;;;;;;;11.30;4.20;;;20.10;41.50;;;;;;5051612;28;20056;-88
2021/12/22 12:49:04;;;;;;;9.95;4.25;;;20.10;41.50;;;;;;5049950;28;20044;-87
2021/12/22 12:51:54;;;;;;;11.07;4.43;;;20.10;41.60;;;;;;5050485;28;20021;-88
2021/12/22 12:54:21;;;;;;;12.18;4.30;;;20.10;41.70;;;;;;5051741;28;20025;-87
2021/12/22 12:56:49;;;;;;;10.65;4.15;;;20.10;41.80;;;;;;5050737;28;20033;-88
2021/12/22 12:59:18;;;;;;;8.18;4.20;;;20.10;41.80;;;;;;5053885;28;20025;-87
2021/12/22 13:01:52;;;;;;;14.48;4.78;;;20.10;41.80;;;;;;5055323;28;20060;-90
2021/12/22 13:04:26;;;;;;;10.02;3.88;;;20.10;41.80;;;;;;5054068;28;20103;-87
2021/12/22 13:07:02;;;;;;;10.43;4.22;;;20.10;41.80;;;;;;5055093;28;20020;-89
2021/12/22 13:09:34;;;;;;;7.18;3.47;;;20.10;41.90;;;;;;5053978;28;20086;-88
2021/12/22 13:12:19;;;;;;;10.73;3.53;;;20.10;41.90;;;;;;5055105;28;20056;-89
2021/12/22 13:17:57;;;;;;;9.50;4.10;;;20.00;41.90;;;;;;5055301;28;20064;-88
2021/12/22 13:20:28;;;;;;;10.50;3.55;;;20.10;42.00;;;;;;5054608;28;20059;-86
2021/12/22 13:22:56;;;;;;;10.55;3.70;;;20.10;42.20;;;;;;5055074;28;20033;-87
2021/12/22 13:25:27;;;;;;;8.68;3.78;;;20.10;42.20;;;;;;5055930;28;20434;-87